Time;durP1;ratioP1;P1;durP2;ratioP2;P2;SDS_P1;SDS_P2;PMS_P1;PMS_P2;Temp;Humidity;BMP_temperature;BMP_pressure;BME280_temperature;BME280_humidity;BME280_pressure;Samples;Min_cycle;Max_cycle;Signal;HPM_P1;HPM_P2
2023/07/25 00:01:30;;;;;;;2.38;1.60;;;20.90;60.00;;;;;;5136437;27;20596;-64
2023/07/25 00:03:55;;;;;;;2.40;1.63;;;21.00;60.00;;;;;;5136858;27;20279;-64
2023/07/25 00:06:21;;;;;;;4.10;1.65;;;20.90;60.00;;;;;;5137081;27;20164;-64
2023/07/25 00:08:47;;;;;;;1.80;1.50;;;20.90;60.10;;;;;;5134270;27;20200;-63
2023/07/25 00:11:13;;;;;;;2.97;1.60;;;20.80;60.00;;;;;;5125584;27;20208;-63
2023/07/25 00:13:39;;;;;;;2.63;1.70;;;20.90;60.20;;;;;;5136906;27;20211;-63
2023/07/25 00:16:04;;;;;;;2.92;1.70;;;20.80;60.20;;;;;;5135918;27;20171;-63
2023/07/25 00:18:30;;;;;;;2.33;1.60;;;20.80;60.20;;;;;;5136777;27;20491;-64
2023/07/25 00:20:55;;;;;;;2.50;1.70;;;20.80;60.20;;;;;;5136648;27;20200;-63
2023/07/25 00:23:21;;;;;;;2.25;1.70;;;20.80;60.30;;;;;;5135721;27;20762;-62
2023/07/25 00:25:47;;;;;;;4.40;1.60;;;20.80;60.30;;;;;;5136454;27;20207;-62
2023/07/25 00:28:12;;;;;;;2.38;1.85;;;20.80;60.20;;;;;;5136117;27;20176;-62
2023/07/25 00:30:39;;;;;;;5.35;1.58;;;20.80;60.60;;;;;;5135645;27;20502;-62
2023/07/25 00:33:05;;;;;;;2.85;1.40;;;20.80;60.60;;;;;;5136144;27;20235;-63
2023/07/25 00:35:30;;;;;;;2.80;1.83;;;20.80;60.60;;;;;;5135688;27;20531;-64
2023/07/25 00:37:56;;;;;;;2.53;1.77;;;20.80;60.70;;;;;;5135877;27;20176;-64
2023/07/25 00:40:22;;;;;;;2.83;1.50;;;20.80;60.60;;;;;;5136133;27;20307;-64
2023/07/25 00:42:52;;;;;;;3.08;1.65;;;20.80;60.50;;;;;;5135686;27;20204;-64
2023/07/25 00:45:18;;;;;;;2.03;1.42;;;20.80;60.50;;;;;;5118416;27;20186;-64
2023/07/25 00:47:43;;;;;;;3.05;1.48;;;20.80;60.50;;;;;;5136224;27;20530;-63
2023/07/25 00:50:09;;;;;;;2.00;1.90;;;20.80;60.40;;;;;;5116942;27;20164;-63
2023/07/25 00:52:34;;;;;;;2.30;1.75;;;20.80;60.40;;;;;;5135678;27;20168;-63
2023/07/25 00:55:00;;;;;;;2.13;1.45;;;20.80;60.40;;;;;;5135509;27;20593;-63
2023/07/25 00:57:26;;;;;;;3.30;2.00;;;20.80;60.40;;;;;;5135177;27;20252;-63
2023/07/25 00:59:51;;;;;;;1.90;1.80;;;20.70;60.60;;;;;;5136079;27;20184;-64
2023/07/25 01:02:17;;;;;;;1.77;1.63;;;20.70;60.80;;;;;;5136172;27;20196;-64
2023/07/25 01:04:43;;;;;;;2.17;1.38;;;20.70;61.20;;;;;;5116890;27;20187;-64
2023/07/25 01:07:13;;;;;;;2.55;1.50;;;20.70;60.60;;;;;;5100486;27;20255;-64
2023/07/25 01:09:39;;;;;;;2.67;1.90;;;20.70;60.70;;;;;;5100633;27;20627;-63
2023/07/25 01:12:08;;;;;;;1.83;1.38;;;20.70;61.20;;;;;;5134589;27;20185;-63
2023/07/25 01:14:34;;;;;;;2.30;1.50;;;20.70;61.30;;;;;;5135576;27;20271;-62
2023/07/25 01:17:01;;;;;;;4.45;1.60;;;20.60;61.60;;;;;;5117114;27;20317;-63
2023/07/25 01:19:29;;;;;;;3.25;1.90;;;20.60;61.10;;;;;;5116501;27;20238;-63
2023/07/25 01:21:54;;;;;;;2.78;1.67;;;20.60;61.30;;;;;;5117237;27;20172;-63
2023/07/25 01:24:20;;;;;;;3.22;1.90;;;20.70;60.80;;;;;;5116700;27;20169;-64
2023/07/25 01:26:45;;;;;;;3.45;2.00;;;20.70;60.80;;;;;;5116210;27;20172;-63
2023/07/25 01:29:11;;;;;;;1.90;1.63;;;20.70;60.60;;;;;;5134983;27;20331;-63
2023/07/25 01:31:36;;;;;;;1.88;1.40;;;20.70;60.40;;;;;;5135202;27;20176;-64
2023/07/25 01:34:02;;;;;;;4.32;1.88;;;20.70;60.40;;;;;;5134280;27;20593;-64
2023/07/25 01:36:27;;;;;;;3.50;1.60;;;20.60;60.10;;;;;;5135334;27;20209;-65
2023/07/25 01:38:53;;;;;;;2.50;1.70;;;20.70;60.30;;;;;;5134178;27;20172;-64
2023/07/25 01:41:19;;;;;;;2.72;1.80;;;20.70;60.10;;;;;;5134595;27;20231;-65
2023/07/25 01:43:44;;;;;;;1.98;1.60;;;20.60;60.00;;;;;;5134951;27;20184;-64
2023/07/25 01:46:10;;;;;;;3.47;1.80;;;20.60;60.00;;;;;;5134060;27;20179;-64
2023/07/25 01:48:35;;;;;;;2.72;1.65;;;20.60;59.90;;;;;;5135112;27;20680;-63
2023/07/25 01:51:02;;;;;;;2.22;1.70;;;20.60;60.20;;;;;;5134707;27;20255;-63
2023/07/25 01:53:27;;;;;;;3.78;1.85;;;20.60;59.90;;;;;;5133928;27;20208;-62
2023/07/25 01:55:53;;;;;;;2.72;1.67;;;20.60;60.00;;;;;;5135142;27;20235;-64
2023/07/25 01:58:18;;;;;;;2.67;1.70;;;20.50;59.80;;;;;;5134550;27;20255;-64
2023/07/25 02:00:44;;;;;;;2.63;1.80;;;20.60;60.00;;;;;;5133897;27;20204;-65
2023/07/25 02:03:10;;;;;;;4.32;1.83;;;20.60;59.90;;;;;;5134048;27;20180;-64
2023/07/25 02:05:36;;;;;;;2.55;1.63;;;20.50;59.80;;;;;;5134187;27;20201;-64
2023/07/25 02:08:01;;;;;;;1.55;1.30;;;20.50;59.80;;;;;;5133561;27;20247;-64
2023/07/25 02:10:27;;;;;;;2.78;1.60;;;20.50;59.80;;;;;;5134796;27;20565;-63
2023/07/25 02:12:53;;;;;;;3.33;1.90;;;20.60;59.70;;;;;;5134359;27;20235;-63
2023/07/25 02:15:18;;;;;;;5.13;1.67;;;20.50;59.50;;;;;;5133697;27;20198;-63
2023/07/25 02:17:44;;;;;;;2.38;1.48;;;20.50;59.40;;;;;;5134422;27;20217;-63
2023/07/25 02:20:13;;;;;;;3.17;1.67;;;20.50;59.40;;;;;;5133878;27;20184;-63
2023/07/25 02:22:38;;;;;;;2.33;1.58;;;20.50;59.40;;;;;;5133517;27;20177;-63
2023/07/25 02:25:04;;;;;;;2.85;1.60;;;20.60;59.30;;;;;;5133908;27;20180;-63
2023/07/25 02:27:29;;;;;;;6.15;1.88;;;20.50;59.20;;;;;;5134399;27;20168;-63
2023/07/25 02:29:55;;;;;;;2.83;1.55;;;20.50;59.20;;;;;;5133675;27;20237;-63
2023/07/25 02:32:27;;;;;;;4.32;2.08;;;20.50;59.00;;;;;;5134171;27;20172;-64
2023/07/25 02:34:52;;;;;;;1.90;1.65;;;20.50;59.00;;;;;;5134058;27;20232;-64
2023/07/25 02:37:18;;;;;;;2.90;1.60;;;20.50;59.60;;;;;;5132816;27;20176;-65
2023/07/25 02:39:46;;;;;;;2.45;1.67;;;20.50;58.80;;;;;;5134067;27;20220;-64
2023/07/25 02:42:12;;;;;;;3.08;1.98;;;20.50;58.90;;;;;;5132819;27;20172;-64
2023/07/25 02:44:37;;;;;;;6.10;1.60;;;20.40;58.70;;;;;;5134107;27;20179;-64
2023/07/25 02:47:03;;;;;;;3.42;1.90;;;20.40;58.70;;;;;;5133582;27;20173;-63
2023/07/25 02:49:29;;;;;;;3.70;1.70;;;20.40;58.60;;;;;;5133103;27;20225;-63
2023/07/25 02:51:54;;;;;;;4.05;2.00;;;20.40;58.70;;;;;;5133697;27;20574;-63
2023/07/25 02:54:20;;;;;;;4.35;1.95;;;20.40;58.50;;;;;;5133767;27;20214;-62
2023/07/25 02:56:45;;;;;;;4.22;1.80;;;20.40;58.60;;;;;;5133031;27;20203;-63
2023/07/25 02:59:11;;;;;;;2.88;1.77;;;20.40;58.50;;;;;;5133421;27;20207;-64
2023/07/25 03:01:36;;;;;;;2.58;1.88;;;20.40;58.50;;;;;;5133554;27;20175;-65
2023/07/25 03:04:02;;;;;;;2.72;1.70;;;20.40;58.50;;;;;;5132503;27;20287;-64
2023/07/25 03:06:27;;;;;;;2.53;1.63;;;20.40;58.30;;;;;;5133532;27;20229;-64
2023/07/25 03:08:53;;;;;;;3.55;1.67;;;20.40;58.40;;;;;;5133704;27;20685;-63
2023/07/25 03:11:19;;;;;;;3.22;1.63;;;20.30;58.30;;;;;;5132596;27;20634;-64
2023/07/25 03:13:44;;;;;;;2.85;1.83;;;20.40;58.50;;;;;;5133646;27;20559;-63
2023/07/25 03:16:10;;;;;;;3.35;2.05;;;20.30;58.40;;;;;;5133333;27;20251;-63
2023/07/25 03:18:35;;;;;;;3.40;1.80;;;20.30;58.30;;;;;;5114248;27;20215;-62
2023/07/25 03:21:01;;;;;;;2.63;1.50;;;20.30;58.40;;;;;;5133173;27;20203;-63
2023/07/25 03:23:26;;;;;;;2.83;1.75;;;20.30;58.40;;;;;;5133897;27;20200;-63
2023/07/25 03:25:52;;;;;;;3.10;1.83;;;20.40;58.40;;;;;;5132652;28;20541;-63
2023/07/25 03:28:17;;;;;;;3.50;1.63;;;20.30;58.40;;;;;;5133042;28;20176;-62
2023/07/25 03:30:43;;;;;;;2.80;1.65;;;20.30;58.30;;;;;;5133483;28;20237;-63
2023/07/25 03:33:08;;;;;;;3.80;1.73;;;20.30;58.30;;;;;;5132108;28;20229;-63
2023/07/25 03:35:34;;;;;;;2.30;1.77;;;20.30;58.40;;;;;;5133287;28;20168;-64
2023/07/25 03:37:59;;;;;;;3.58;1.80;;;20.30;58.30;;;;;;5132854;28;20172;-63
2023/07/25 03:40:25;;;;;;;1.92;1.73;;;20.30;58.40;;;;;;5132256;28;20221;-64
2023/07/25 03:42:50;;;;;;;2.38;1.98;;;20.30;58.40;;;;;;5133062;28;20179;-63
2023/07/25 03:45:16;;;;;;;3.58;1.83;;;20.30;58.30;;;;;;5133202;28;20266;-63
2023/07/25 03:47:41;;;;;;;4.10;1.70;;;20.30;58.30;;;;;;5132406;28;20259;-63
2023/07/25 03:50:07;;;;;;;2.88;1.67;;;20.30;58.20;;;;;;5114353;28;20200;-62
2023/07/25 03:52:33;;;;;;;3.60;1.70;;;20.20;58.20;;;;;;5132230;28;20188;-62
2023/07/25 03:54:58;;;;;;;6.65;1.85;;;20.30;58.20;;;;;;5132726;28;20221;-62
2023/07/25 03:57:24;;;;;;;1.73;1.52;;;20.20;58.10;;;;;;5133223;28;20169;-62
2023/07/25 03:59:49;;;;;;;3.72;1.80;;;20.20;58.10;;;;;;5132483;28;20624;-63
2023/07/25 04:02:15;;;;;;;3.30;1.75;;;20.20;58.80;;;;;;5132780;28;20503;-64
2023/07/25 04:04:44;;;;;;;2.83;1.73;;;20.20;58.10;;;;;;5133049;28;20172;-63
2023/07/25 04:07:09;;;;;;;4.65;2.38;;;20.20;58.80;;;;;;5131890;28;20172;-63
2023/07/25 04:09:35;;;;;;;1.80;1.65;;;20.20;58.10;;;;;;5132786;28;20252;-62
2023/07/25 04:12:00;;;;;;;2.15;1.80;;;20.20;58.10;;;;;;5132662;28;20168;-63
2023/07/25 04:14:26;;;;;;;3.50;1.77;;;20.20;58.00;;;;;;5132068;28;20219;-62
2023/07/25 04:16:51;;;;;;;3.15;1.85;;;20.20;58.00;;;;;;5132774;28;20538;-63
2023/07/25 04:19:17;;;;;;;3.72;1.65;;;20.20;58.70;;;;;;5132579;28;20177;-63
2023/07/25 04:21:42;;;;;;;2.20;2.00;;;20.20;58.10;;;;;;5131996;28;20176;-63
2023/07/25 04:24:08;;;;;;;3.85;2.33;;;20.20;58.10;;;;;;5132321;28;20172;-63
2023/07/25 04:26:33;;;;;;;2.15;1.95;;;20.20;58.10;;;;;;5132920;27;20217;-62
2023/07/25 04:28:59;;;;;;;2.80;1.60;;;20.20;58.10;;;;;;5135643;27;20259;-62
2023/07/25 04:31:24;;;;;;;1.92;1.73;;;20.20;58.30;;;;;;5136673;27;20525;-63
2023/07/25 04:33:50;;;;;;;2.22;1.80;;;20.20;58.30;;;;;;5136483;27;20295;-63
2023/07/25 04:36:16;;;;;;;2.67;1.80;;;20.20;58.40;;;;;;5135284;27;20210;-64
2023/07/25 04:38:41;;;;;;;3.78;1.83;;;20.20;58.40;;;;;;5136153;27;20188;-64
2023/07/25 04:41:07;;;;;;;1.70;1.60;;;20.10;58.30;;;;;;5135992;27;20585;-64
2023/07/25 04:43:32;;;;;;;2.40;1.75;;;20.10;58.40;;;;;;5135692;27;20630;-64
2023/07/25 04:45:58;;;;;;;3.15;1.63;;;20.10;58.40;;;;;;5136066;27;20611;-63
2023/07/25 04:48:24;;;;;;;3.42;2.08;;;20.10;58.40;;;;;;5136187;27;20204;-63
2023/07/25 04:50:50;;;;;;;2.35;1.85;;;20.10;58.40;;;;;;5135548;27;20225;-63
2023/07/25 04:53:15;;;;;;;3.35;1.67;;;20.20;58.40;;;;;;5135751;27;20609;-61
2023/07/25 04:55:41;;;;;;;4.07;2.20;;;20.10;58.50;;;;;;5135682;27;20522;-63
2023/07/25 04:58:07;;;;;;;2.70;1.90;;;20.10;58.40;;;;;;5135602;27;20173;-64
2023/07/25 05:00:32;;;;;;;2.67;2.22;;;20.10;58.40;;;;;;5135855;27;20212;-63
2023/07/25 05:02:58;;;;;;;2.40;1.55;;;20.10;58.40;;;;;;5134826;27;20187;-64
2023/07/25 05:05:23;;;;;;;2.17;1.70;;;20.10;58.40;;;;;;5135695;27;20626;-65
2023/07/25 05:07:49;;;;;;;2.90;1.88;;;20.10;58.30;;;;;;5135952;27;20168;-64
2023/07/25 05:10:14;;;;;;;2.45;2.00;;;20.20;58.40;;;;;;5134699;27;20274;-63
2023/07/25 05:12:40;;;;;;;2.28;1.73;;;20.20;58.40;;;;;;5135465;27;20180;-63
2023/07/25 05:15:06;;;;;;;2.85;1.77;;;20.10;58.40;;;;;;5135474;27;20179;-63
2023/07/25 05:17:32;;;;;;;4.22;2.03;;;20.10;58.40;;;;;;5134938;27;20173;-63
2023/07/25 05:19:58;;;;;;;2.08;1.88;;;20.20;58.60;;;;;;5135526;27;20244;-63
2023/07/25 05:22:23;;;;;;;5.38;2.20;;;20.20;58.60;;;;;;5135443;27;20203;-63
2023/07/25 05:24:49;;;;;;;2.63;1.73;;;20.20;58.50;;;;;;5134890;27;20179;-63
2023/07/25 05:27:15;;;;;;;2.15;1.50;;;20.20;58.40;;;;;;5134900;27;20666;-63
2023/07/25 05:29:40;;;;;;;2.72;2.10;;;20.20;58.50;;;;;;5135425;27;20200;-63
2023/07/25 05:32:06;;;;;;;3.08;1.80;;;20.20;58.60;;;;;;5134384;27;20217;-64
2023/07/25 05:34:32;;;;;;;3.08;2.03;;;20.20;58.60;;;;;;5135237;27;20204;-64
2023/07/25 05:36:57;;;;;;;2.83;1.67;;;20.20;58.70;;;;;;5134905;27;20169;-65
2023/07/25 05:39:23;;;;;;;4.15;1.90;;;20.30;58.70;;;;;;5133221;27;20310;-64
2023/07/25 05:41:49;;;;;;;3.88;1.70;;;20.20;58.60;;;;;;5135259;27;20244;-64
2023/07/25 05:44:14;;;;;;;2.33;2.03;;;20.30;59.40;;;;;;5134934;27;20666;-64
2023/07/25 05:46:40;;;;;;;3.67;1.73;;;20.30;58.70;;;;;;5116578;27;20173;-63
2023/07/25 05:49:05;;;;;;;3.38;1.60;;;20.20;58.80;;;;;;5114014;28;20173;-63
2023/07/25 05:51:31;;;;;;;5.90;1.73;;;20.30;59.00;;;;;;5114330;28;20177;-62
2023/07/25 05:53:56;;;;;;;2.90;1.70;;;20.30;59.70;;;;;;5113217;28;20304;-62
2023/07/25 05:56:22;;;;;;;3.78;1.60;;;20.30;59.10;;;;;;5114149;28;20268;-63
2023/07/25 05:58:47;;;;;;;4.28;1.85;;;20.30;59.20;;;;;;5114266;28;20276;-64
2023/07/25 06:01:13;;;;;;;3.47;1.88;;;20.30;59.10;;;;;;5113199;28;20199;-65
2023/07/25 06:03:39;;;;;;;2.00;1.60;;;20.20;59.20;;;;;;5096128;28;20199;-64
2023/07/25 06:06:04;;;;;;;2.78;1.48;;;20.30;59.40;;;;;;5112970;28;20177;-64
2023/07/25 06:08:30;;;;;;;3.63;1.70;;;20.30;59.30;;;;;;5113989;28;20169;-63
2023/07/25 06:10:55;;;;;;;1.40;1.30;;;20.20;59.10;;;;;;5114008;28;20169;-63
2023/07/25 06:13:21;;;;;;;3.28;2.15;;;20.30;59.10;;;;;;5113252;28;20205;-64
2023/07/25 06:15:47;;;;;;;2.58;1.67;;;20.30;59.20;;;;;;5113768;28;20180;-63
2023/07/25 06:18:12;;;;;;;3.42;1.83;;;20.30;59.10;;;;;;5113478;28;20195;-63
2023/07/25 06:20:38;;;;;;;3.75;2.20;;;20.30;59.40;;;;;;5113185;28;20170;-63
2023/07/25 06:23:04;;;;;;;2.95;1.75;;;20.30;59.30;;;;;;5113689;28;20173;-63
2023/07/25 06:25:29;;;;;;;3.63;2.05;;;20.30;59.40;;;;;;5113884;28;20173;-63
2023/07/25 06:27:55;;;;;;;2.88;1.75;;;20.30;60.10;;;;;;5077938;28;20229;-63
2023/07/25 06:30:20;;;;;;;4.18;1.85;;;20.30;59.40;;;;;;5113457;28;20173;-63
2023/07/25 06:32:46;;;;;;;2.95;1.40;;;20.30;59.40;;;;;;5113595;28;20211;-63
2023/07/25 06:35:12;;;;;;;4.28;1.80;;;20.30;59.60;;;;;;5112638;28;20180;-64
2023/07/25 06:37:37;;;;;;;2.05;1.50;;;20.30;60.10;;;;;;5113803;28;20251;-64
2023/07/25 06:40:03;;;;;;;4.25;1.85;;;20.30;59.50;;;;;;5113051;28;20702;-63
2023/07/25 06:42:29;;;;;;;2.55;1.55;;;20.30;59.50;;;;;;5112727;28;20177;-64
2023/07/25 06:44:58;;;;;;;4.50;2.05;;;20.30;59.50;;;;;;5113404;28;20523;-63
2023/07/25 06:47:23;;;;;;;3.22;1.60;;;20.30;59.50;;;;;;5113246;28;20321;-63
2023/07/25 06:49:49;;;;;;;3.60;1.67;;;20.30;59.60;;;;;;5112595;28;20200;-62
2023/07/25 06:52:14;;;;;;;3.13;1.75;;;20.30;59.50;;;;;;5113136;28;20569;-62
2023/07/25 06:54:41;;;;;;;5.00;2.00;;;20.30;59.60;;;;;;5113026;28;20204;-62
2023/07/25 06:57:06;;;;;;;3.70;1.90;;;20.30;59.60;;;;;;5112223;28;20175;-63
2023/07/25 06:59:32;;;;;;;1.90;1.52;;;20.30;59.60;;;;;;5112661;28;20180;-63
2023/07/25 07:01:57;;;;;;;5.95;2.13;;;20.30;59.60;;;;;;5112596;28;20267;-64
2023/07/25 07:04:23;;;;;;;3.90;1.90;;;20.40;59.80;;;;;;5112210;28;20180;-64
2023/07/25 07:06:49;;;;;;;2.63;1.75;;;20.30;59.70;;;;;;5113178;28;20177;-63
2023/07/25 07:09:14;;;;;;;4.72;1.75;;;20.30;59.70;;;;;;5112685;28;20707;-63
2023/07/25 07:11:40;;;;;;;3.10;1.58;;;20.30;59.80;;;;;;5112163;28;20173;-63
2023/07/25 07:14:06;;;;;;;2.17;1.55;;;20.30;59.70;;;;;;5112661;28;20208;-62
2023/07/25 07:16:31;;;;;;;4.20;2.05;;;20.40;59.80;;;;;;5112410;28;20254;-63
2023/07/25 07:18:57;;;;;;;3.03;1.58;;;20.30;59.80;;;;;;5112506;28;20169;-62
2023/07/25 07:21:22;;;;;;;4.15;1.88;;;20.30;59.90;;;;;;5112919;28;20276;-63
2023/07/25 07:23:48;;;;;;;3.00;1.42;;;20.30;59.80;;;;;;5112116;28;20245;-64
2023/07/25 07:26:14;;;;;;;4.28;1.70;;;20.30;59.80;;;;;;5112555;28;20233;-63
2023/07/25 07:28:39;;;;;;;3.85;1.58;;;20.30;59.90;;;;;;5112663;28;20173;-67
2023/07/25 07:31:08;;;;;;;3.67;1.60;;;20.30;60.10;;;;;;5111535;28;20253;-67
2023/07/25 07:33:34;;;;;;;2.20;1.60;;;20.40;60.10;;;;;;5112541;28;20240;-62
2023/07/25 07:35:59;;;;;;;4.22;1.63;;;20.40;60.20;;;;;;5112578;28;20169;-64
2023/07/25 07:38:25;;;;;;;2.85;1.40;;;20.40;60.00;;;;;;5111830;28;20698;-63
2023/07/25 07:40:50;;;;;;;3.00;1.50;;;20.40;59.90;;;;;;5112545;28;20654;-68
2023/07/25 07:43:16;;;;;;;5.15;1.45;;;20.40;60.10;;;;;;5115474;28;20176;-65
2023/07/25 07:45:42;;;;;;;3.72;1.25;;;20.40;60.30;;;;;;5122350;28;20251;-65
2023/07/25 07:48:07;;;;;;;2.60;1.50;;;20.50;60.30;;;;;;5122487;28;20180;-64
2023/07/25 07:50:33;;;;;;;3.35;1.50;;;20.50;61.10;;;;;;5121049;28;20253;-64
2023/07/25 07:52:59;;;;;;;2.42;1.45;;;20.50;60.10;;;;;;5122313;28;20196;-64
2023/07/25 07:55:24;;;;;;;3.85;1.65;;;20.50;60.10;;;;;;5112663;28;20182;-64
2023/07/25 07:57:50;;;;;;;7.50;2.38;;;20.50;60.20;;;;;;5112313;28;20176;-65
2023/07/25 08:00:16;;;;;;;2.17;1.50;;;20.60;60.40;;;;;;5111599;28;20187;-66
2023/07/25 08:02:42;;;;;;;3.15;1.63;;;20.50;60.30;;;;;;5114697;28;20753;-67
2023/07/25 08:05:08;;;;;;;2.63;1.50;;;20.60;60.40;;;;;;5116187;28;20199;-67
2023/07/25 08:07:34;;;;;;;4.10;1.65;;;20.60;60.50;;;;;;5115682;28;20165;-66
2023/07/25 08:09:59;;;;;;;1.95;1.33;;;20.60;60.40;;;;;;5116121;28;20640;-66
2023/07/25 08:12:25;;;;;;;4.22;1.60;;;20.70;60.50;;;;;;5116293;28;20568;-67
2023/07/25 08:14:51;;;;;;;3.67;1.40;;;20.70;60.60;;;;;;5115445;28;20216;-66
2023/07/25 08:17:17;;;;;;;2.92;1.10;;;20.70;60.50;;;;;;5116305;28;20519;-66
2023/07/25 08:19:43;;;;;;;1.83;1.48;;;20.70;60.60;;;;;;5115510;28;20192;-67
2023/07/25 08:22:11;;;;;;;2.75;1.35;;;20.70;60.50;;;;;;5115916;28;20173;-66
2023/07/25 08:24:38;;;;;;;2.63;1.40;;;20.70;60.50;;;;;;5116052;28;20192;-67
2023/07/25 08:27:03;;;;;;;1.92;1.23;;;20.60;60.40;;;;;;5114982;28;20216;-66
2023/07/25 08:29:29;;;;;;;2.85;1.33;;;20.70;60.40;;;;;;5116168;28;20212;-66
2023/07/25 08:31:54;;;;;;;1.75;1.08;;;20.70;60.30;;;;;;5115966;28;20499;-67
2023/07/25 08:34:20;;;;;;;2.60;1.30;;;20.70;60.20;;;;;;5115154;28;20724;-67
2023/07/25 08:36:46;;;;;;;2.45;1.35;;;20.70;60.20;;;;;;5115713;28;20640;-68
2023/07/25 08:39:12;;;;;;;3.83;1.30;;;20.70;60.10;;;;;;5115335;28;20264;-67
2023/07/25 08:41:43;;;;;;;2.42;1.45;;;20.70;60.10;;;;;;5115063;28;20205;-67
2023/07/25 08:44:12;;;;;;;1.20;1.10;;;20.70;60.00;;;;;;5097361;28;20192;-67
2023/07/25 08:46:41;;;;;;;1.73;1.50;;;20.70;60.00;;;;;;5115725;28;20165;-66
2023/07/25 08:49:07;;;;;;;2.60;1.42;;;20.70;60.00;;;;;;5096437;28;20173;-67
2023/07/25 08:51:34;;;;;;;2.30;1.20;;;20.80;59.90;;;;;;5097324;28;20181;-64
2023/07/25 08:54:27;;;;;;;2.38;1.13;;;20.80;59.80;;;;;;5097060;28;20301;-64
2023/07/25 08:56:53;;;;;;;4.22;1.40;;;20.90;59.80;;;;;;5089535;28;20559;-66
2023/07/25 08:59:27;;;;;;;2.67;1.30;;;20.80;59.70;;;;;;5115040;28;20169;-66
2023/07/25 09:01:53;;;;;;;4.05;1.80;;;21.00;59.80;;;;;;5114798;28;20179;-67
2023/07/25 09:04:19;;;;;;;2.80;1.20;;;21.00;59.80;;;;;;5114610;28;20173;-66
2023/07/25 09:06:45;;;;;;;1.80;1.20;;;21.10;59.70;;;;;;5115063;28;20195;-65
2023/07/25 09:09:11;;;;;;;2.72;0.90;;;21.10;60.50;;;;;;5114103;28;21079;-66
2023/07/25 09:11:36;;;;;;;2.70;1.45;;;21.10;59.80;;;;;;5115015;28;20273;-66
2023/07/25 09:14:02;;;;;;;1.58;1.25;;;21.10;59.80;;;;;;5114419;28;20296;-65
2023/07/25 09:16:27;;;;;;;2.72;1.10;;;21.10;59.70;;;;;;5096265;28;20190;-65
2023/07/25 09:18:53;;;;;;;2.10;1.40;;;21.20;59.80;;;;;;5096864;28;20204;-66
2023/07/25 09:21:19;;;;;;;1.42;1.10;;;21.10;59.90;;;;;;5114790;27;20166;-65
2023/07/25 09:23:54;;;;;;;2.35;1.30;;;21.10;60.00;;;;;;5123310;27;20649;-65
2023/07/25 09:26:24;;;;;;;2.75;1.10;;;21.00;60.10;;;;;;5126634;27;20176;-64
2023/07/25 09:28:51;;;;;;;1.55;0.98;;;20.90;60.20;;;;;;5135400;27;20268;-65
2023/07/25 09:31:17;;;;;;;2.20;1.30;;;20.90;60.30;;;;;;5116496;27;20188;-65
2023/07/25 09:33:48;;;;;;;2.88;0.98;;;20.90;61.20;;;;;;5114505;28;20251;-67
2023/07/25 09:36:14;;;;;;;2.22;1.38;;;20.90;60.40;;;;;;5108878;27;20179;-67
2023/07/25 09:38:50;;;;;;;1.75;1.25;;;20.80;60.40;;;;;;5126627;27;20256;-67
2023/07/25 09:41:19;;;;;;;2.08;1.00;;;20.80;60.50;;;;;;5114136;28;20680;-66
2023/07/25 09:43:45;;;;;;;1.20;0.90;;;20.90;60.40;;;;;;5114831;28;20173;-66
2023/07/25 09:46:11;;;;;;;1.58;1.00;;;20.90;60.20;;;;;;5113491;28;20238;-65
2023/07/25 09:48:36;;;;;;;2.47;1.00;;;21.10;60.00;;;;;;5114446;28;20318;-64
2023/07/25 09:51:02;;;;;;;2.42;0.95;;;21.10;59.70;;;;;;5114123;28;20218;-64
2023/07/25 09:53:29;;;;;;;2.15;1.17;;;21.20;59.60;;;;;;5113736;28;20208;-65
2023/07/25 09:55:55;;;;;;;1.42;0.95;;;21.20;59.60;;;;;;5123597;27;20204;-65
2023/07/25 09:58:21;;;;;;;1.77;1.02;;;21.10;59.70;;;;;;5115778;27;20200;-66
2023/07/25 10:00:46;;;;;;;3.28;1.50;;;21.10;59.90;;;;;;5116350;27;20196;-66
2023/07/25 10:03:12;;;;;;;3.08;1.10;;;21.10;60.00;;;;;;5115946;27;20207;-65
2023/07/25 10:05:41;;;;;;;0.98;0.88;;;21.00;60.00;;;;;;5115766;27;20168;-65
2023/07/25 10:08:08;;;;;;;0.90;0.80;;;21.00;60.10;;;;;;5134121;27;20236;-64
2023/07/25 10:10:34;;;;;;;1.65;1.10;;;21.00;60.20;;;;;;5134474;27;20557;-64
2023/07/25 10:12:59;;;;;;;1.27;0.88;;;21.00;60.20;;;;;;5133460;27;20211;-64
2023/07/25 10:15:25;;;;;;;2.35;1.00;;;21.10;59.80;;;;;;5134684;27;20194;-64
2023/07/25 10:17:50;;;;;;;1.30;0.85;;;21.20;59.80;;;;;;5116363;27;20177;-67
2023/07/25 10:20:22;;;;;;;1.75;1.10;;;21.10;60.10;;;;;;5133672;27;20244;-65
2023/07/25 10:22:48;;;;;;;5.80;1.27;;;21.10;60.40;;;;;;5134480;27;20173;-65
2023/07/25 10:25:21;;;;;;;5.28;1.23;;;21.10;60.30;;;;;;5133284;27;20226;-67
2023/07/25 10:27:46;;;;;;;3.53;1.00;;;21.10;60.30;;;;;;5110433;27;20209;-67
2023/07/25 10:30:26;;;;;;;2.15;1.08;;;21.10;60.50;;;;;;5122308;27;20195;-66
2023/07/25 10:32:54;;;;;;;4.32;0.82;;;21.10;60.50;;;;;;5122569;27;20173;-68
2023/07/25 10:35:38;;;;;;;2.45;1.40;;;21.20;60.40;;;;;;5122302;27;20211;-67
2023/07/25 10:38:12;;;;;;;5.82;1.00;;;21.20;60.20;;;;;;5121807;27;20177;-67
2023/07/25 10:40:53;;;;;;;2.03;0.93;;;21.20;60.30;;;;;;5123291;27;20216;-68
2023/07/25 10:43:20;;;;;;;1.55;1.10;;;21.10;60.30;;;;;;5118517;27;20512;-67
2023/07/25 10:45:49;;;;;;;1.30;0.80;;;21.10;60.30;;;;;;5120758;27;20181;-68
2023/07/25 10:49:04;;;;;;;1.85;0.90;;;21.10;60.40;;;;;;5120568;27;20570;-67
2023/07/25 10:51:51;;;;;;;1.05;0.70;;;21.20;60.00;;;;;;5094116;27;20185;-66
2023/07/25 10:54:21;;;;;;;1.33;0.82;;;21.30;59.80;;;;;;5133379;27;20204;-70
2023/07/25 10:57:08;;;;;;;1.60;0.85;;;21.30;59.90;;;;;;5133166;27;20164;-61
2023/07/25 10:59:54;;;;;;;2.15;0.70;;;21.40;59.70;;;;;;5133840;27;20173;-63
2023/07/25 11:02:43;;;;;;;2.28;1.17;;;21.40;59.60;;;;;;5117171;27;20516;-61
2023/07/25 11:05:12;;;;;;;4.28;1.20;;;21.50;59.50;;;;;;5133282;27;20176;-62
2023/07/25 11:07:38;;;;;;;2.50;0.90;;;21.40;59.40;;;;;;5133330;27;20173;-61
2023/07/25 11:10:04;;;;;;;1.23;0.70;;;21.40;59.40;;;;;;5132055;27;20184;-62
2023/07/25 11:12:29;;;;;;;1.45;0.70;;;21.50;59.40;;;;;;5115327;27;20168;-61
2023/07/25 11:14:55;;;;;;;0.85;0.60;;;21.50;59.30;;;;;;5115213;27;20215;-61
2023/07/25 11:17:21;;;;;;;1.88;0.77;;;21.60;59.20;;;;;;5132595;27;20168;-62
2023/07/25 11:19:46;;;;;;;1.67;1.02;;;21.50;59.20;;;;;;5097733;28;20671;-61
2023/07/25 11:22:12;;;;;;;1.67;0.60;;;21.50;59.90;;;;;;5133184;27;20561;-62
2023/07/25 11:24:42;;;;;;;0.65;0.50;;;21.50;59.20;;;;;;5132569;27;20193;-62
2023/07/25 11:27:08;;;;;;;1.10;0.77;;;21.60;59.10;;;;;;5133237;27;20251;-61
2023/07/25 11:29:34;;;;;;;1.77;0.93;;;21.60;59.00;;;;;;5127065;27;20628;-62
2023/07/25 11:32:00;;;;;;;1.00;0.88;;;21.70;59.00;;;;;;5112453;28;20177;-62
2023/07/25 11:34:26;;;;;;;1.92;0.70;;;21.70;58.80;;;;;;5112601;28;20216;-64
2023/07/25 11:36:52;;;;;;;2.30;1.05;;;21.70;58.80;;;;;;5112033;28;20548;-62
2023/07/25 11:39:18;;;;;;;1.83;0.82;;;21.60;59.00;;;;;;5116327;28;20192;-63
2023/07/25 11:41:44;;;;;;;2.15;0.60;;;21.70;58.80;;;;;;5117089;28;20171;-62
2023/07/25 11:44:15;;;;;;;3.83;0.95;;;21.70;58.80;;;;;;5116038;28;20207;-62
2023/07/25 11:46:43;;;;;;;1.15;0.60;;;21.70;58.70;;;;;;5116904;28;20627;-62
2023/07/25 11:49:09;;;;;;;2.20;1.02;;;21.70;58.70;;;;;;5098280;28;20600;-61
2023/07/25 11:51:34;;;;;;;2.15;0.70;;;21.70;58.70;;;;;;5098095;28;20286;-61
2023/07/25 11:54:00;;;;;;;1.90;0.70;;;21.70;58.60;;;;;;5098051;28;20215;-60
2023/07/25 11:56:25;;;;;;;1.08;0.85;;;21.80;58.60;;;;;;5116814;28;20221;-61
2023/07/25 11:58:51;;;;;;;1.58;0.63;;;21.80;58.50;;;;;;5097646;28;20169;-61
2023/07/25 12:01:18;;;;;;;0.50;0.50;;;21.80;58.40;;;;;;5116271;28;20169;-62
2023/07/25 12:03:50;;;;;;;2.60;0.80;;;21.90;58.30;;;;;;5116626;28;20191;-62
2023/07/25 12:06:16;;;;;;;1.75;0.70;;;21.90;58.20;;;;;;5115505;28;20558;-61
2023/07/25 12:08:42;;;;;;;0.85;0.45;;;21.90;58.10;;;;;;5116746;28;20221;-61
2023/07/25 12:11:11;;;;;;;1.85;0.60;;;22.00;58.10;;;;;;5116111;28;20593;-60
2023/07/25 12:13:46;;;;;;;2.25;0.73;;;21.90;58.20;;;;;;5115780;28;20205;-61
2023/07/25 12:16:25;;;;;;;1.92;0.70;;;21.80;58.30;;;;;;5115984;28;20667;-61
2023/07/25 12:18:56;;;;;;;1.33;0.70;;;21.90;58.10;;;;;;5115718;28;20173;-60
2023/07/25 12:21:30;;;;;;;0.90;0.70;;;21.90;58.00;;;;;;5116480;28;20184;-61
2023/07/25 12:24:00;;;;;;;1.58;0.50;;;22.00;57.90;;;;;;5116221;28;20173;-61
2023/07/25 12:26:26;;;;;;;0.65;0.65;;;22.00;57.90;;;;;;5115707;28;20172;-61
2023/07/25 12:28:52;;;;;;;0.85;0.63;;;22.00;57.70;;;;;;5115887;28;20535;-61
2023/07/25 12:31:18;;;;;;;1.00;0.73;;;22.00;58.00;;;;;;5135848;27;20225;-62
2023/07/25 12:33:44;;;;;;;1.65;0.60;;;21.90;58.10;;;;;;5135655;27;20306;-62
2023/07/25 12:36:10;;;;;;;1.08;0.70;;;21.80;58.10;;;;;;5136301;27;20584;-62
2023/07/25 12:38:36;;;;;;;1.30;0.77;;;21.80;58.20;;;;;;5136466;27;20623;-62
2023/07/25 12:41:02;;;;;;;1.17;0.65;;;21.90;58.00;;;;;;5135165;27;20234;-62
2023/07/25 12:43:28;;;;;;;0.95;0.60;;;22.00;57.70;;;;;;5136253;27;20613;-62
2023/07/25 12:45:57;;;;;;;0.77;0.70;;;22.10;57.60;;;;;;5136567;27;20259;-62